Time;durP1;ratioP1;P1;durP2;ratioP2;P2;SDS_P1;SDS_P2;PMS_P1;PMS_P2;Temp;Humidity;BMP_temperature;BMP_pressure;BME280_temperature;BME280_humidity;BME280_pressure;Samples;Min_cycle;Max_cycle;Signal;HPM_P1;HPM_P2
2022/06/24 00:00:08;;;;;;;2.88;2.47;;;17.70;1.00;;;;;;4997240;28;20294;-85
2022/06/24 00:02:34;;;;;;;2.80;2.60;;;17.70;99.90;;;;;;4998218;28;20179;-85
2022/06/24 00:05:06;;;;;;;2.75;2.50;;;17.60;99.90;;;;;;4998715;28;20282;-87
2022/06/24 00:07:44;;;;;;;3.72;2.63;;;17.60;99.90;;;;;;4997016;28;20181;-85
2022/06/24 00:10:20;;;;;;;2.78;2.58;;;17.60;99.90;;;;;;4997610;28;20302;-85
2022/06/24 00:12:47;;;;;;;2.60;2.40;;;17.60;1.00;;;;;;4997597;28;20187;-86
2022/06/24 00:15:13;;;;;;;2.47;2.28;;;17.60;99.90;;;;;;4996931;28;20266;-85
2022/06/24 00:17:38;;;;;;;3.10;2.80;;;17.50;1.00;;;;;;4997726;28;20187;-84
2022/06/24 00:20:07;;;;;;;2.78;2.58;;;17.50;1.00;;;;;;4996089;28;20204;-84
2022/06/24 00:22:44;;;;;;;3.90;2.58;;;17.50;99.90;;;;;;4997287;28;20184;-84
2022/06/24 00:25:11;;;;;;;2.65;2.45;;;17.40;99.90;;;;;;4996946;28;20184;-83
2022/06/24 00:27:38;;;;;;;3.45;2.90;;;17.40;99.90;;;;;;4997651;28;20180;-84
2022/06/24 00:30:12;;;;;;;3.15;2.50;;;17.30;97.90;;;;;;4996402;28;20258;-83
2022/06/24 00:32:38;;;;;;;3.13;2.90;;;17.30;9.30;;;;;;4996273;28;20195;-86
2022/06/24 00:35:11;;;;;;;3.25;2.80;;;17.30;99.90;;;;;;4997618;28;20200;-85
2022/06/24 00:37:38;;;;;;;3.13;2.83;;;17.30;99.90;;;;;;4997939;28;20792;-86
2022/06/24 00:40:10;;;;;;;2.45;2.25;;;17.30;99.90;;;;;;4996526;28;20291;-84
2022/06/24 00:42:46;;;;;;;3.17;2.88;;;17.30;99.90;;;;;;4997291;28;20259;-85
2022/06/24 00:45:40;;;;;;;3.20;3.00;;;17.30;99.90;;;;;;4996151;28;20179;-85
2022/06/24 00:48:12;;;;;;;3.00;2.80;;;17.30;95.90;;;;;;4994952;28;20184;-85
2022/06/24 00:50:42;;;;;;;2.97;2.78;;;17.30;99.90;;;;;;4997139;28;20553;-84
2022/06/24 00:53:07;;;;;;;3.35;3.05;;;17.30;99.90;;;;;;4996078;28;20555;-85
2022/06/24 00:55:37;;;;;;;3.75;3.22;;;17.30;99.90;;;;;;4995097;28;20211;-85
2022/06/24 00:58:04;;;;;;;4.13;3.17;;;17.30;97.00;;;;;;4997127;28;20228;-84
2022/06/24 01:00:33;;;;;;;3.70;3.30;;;17.40;92.60;;;;;;4996102;28;20233;-84
2022/06/24 01:03:04;;;;;;;3.60;3.30;;;17.40;99.90;;;;;;5012728;28;20302;-85
2022/06/24 01:05:32;;;;;;;3.22;3.03;;;17.40;99.90;;;;;;4996368;28;20233;-85
2022/06/24 01:07:59;;;;;;;3.60;2.78;;;17.40;99.90;;;;;;5012830;28;20873;-85
2022/06/24 01:10:25;;;;;;;3.22;2.90;;;17.40;99.90;;;;;;4996627;28;20218;-85
2022/06/24 01:12:52;;;;;;;3.53;3.22;;;17.30;99.90;;;;;;5011512;28;20249;-85
2022/06/24 01:15:18;;;;;;;3.15;2.95;;;17.30;99.90;;;;;;4995469;28;20211;-86
2022/06/24 01:17:43;;;;;;;3.30;3.00;;;17.30;99.90;;;;;;4994565;28;20186;-85
2022/06/24 01:20:10;;;;;;;3.15;2.95;;;17.20;1.00;;;;;;4996177;28;20584;-84
2022/06/24 01:22:36;;;;;;;3.45;3.15;;;17.20;1.00;;;;;;4996347;28;20191;-85
2022/06/24 01:25:02;;;;;;;3.53;3.22;;;17.10;1.00;;;;;;4996682;28;20199;-84
2022/06/24 01:27:27;;;;;;;3.88;3.58;;;17.00;1.00;;;;;;4995341;28;21270;-85
2022/06/24 01:29:53;;;;;;;4.18;3.55;;;17.00;1.00;;;;;;4994498;28;20585;-84
2022/06/24 01:32:19;;;;;;;3.70;3.40;;;16.90;1.00;;;;;;4996314;28;20669;-86
2022/06/24 01:34:45;;;;;;;3.95;3.55;;;16.90;1.00;;;;;;4995982;28;20219;-85
2022/06/24 01:37:11;;;;;;;3.38;3.17;;;16.80;1.00;;;;;;4995878;28;20222;-85
2022/06/24 01:39:37;;;;;;;3.40;3.20;;;16.70;1.00;;;;;;4995338;28;20207;-84
2022/06/24 01:42:03;;;;;;;4.88;3.55;;;16.70;1.00;;;;;;4995519;28;20200;-84
2022/06/24 01:44:29;;;;;;;3.50;3.20;;;16.60;1.00;;;;;;5012131;28;20298;-86
2022/06/24 01:46:55;;;;;;;3.55;3.25;;;16.60;1.00;;;;;;4995005;28;20439;-85
2022/06/24 01:49:20;;;;;;;3.60;3.30;;;16.60;1.00;;;;;;4996775;28;20206;-85
2022/06/24 01:51:48;;;;;;;3.40;3.15;;;16.60;1.00;;;;;;4996445;28;20672;-85
2022/06/24 01:54:15;;;;;;;3.90;3.55;;;16.50;1.00;;;;;;4996150;28;20211;-85
2022/06/24 01:56:40;;;;;;;3.72;3.42;;;16.50;1.00;;;;;;4994498;28;20215;-87
2022/06/24 01:59:06;;;;;;;3.42;3.22;;;16.50;1.00;;;;;;4995076;28;20203;-85
2022/06/24 02:01:32;;;;;;;3.42;3.22;;;16.50;1.00;;;;;;4996213;28;20561;-85
2022/06/24 02:03:57;;;;;;;3.70;3.35;;;16.50;1.00;;;;;;4995625;28;20218;-84
2022/06/24 02:06:23;;;;;;;3.92;3.53;;;16.40;1.00;;;;;;4995428;28;20180;-85
2022/06/24 02:08:49;;;;;;;3.50;3.30;;;16.40;1.00;;;;;;4994665;28;20579;-85
2022/06/24 02:14:06;;;;;;;4.07;3.80;;;16.40;1.00;;;;;;4996783;28;20254;-86
2022/06/24 02:16:32;;;;;;;3.95;3.65;;;16.30;1.00;;;;;;4996273;28;20265;-84
2022/06/24 02:18:59;;;;;;;4.63;3.75;;;16.30;1.00;;;;;;4994715;28;20200;-84
2022/06/24 02:21:25;;;;;;;5.70;3.80;;;16.30;1.00;;;;;;4994911;28;20229;-85
2022/06/24 02:23:52;;;;;;;3.80;3.50;;;16.30;1.00;;;;;;5011229;28;20275;-85
2022/06/24 02:26:18;;;;;;;4.10;3.80;;;16.30;1.00;;;;;;5011038;28;20183;-84
2022/06/24 02:28:43;;;;;;;4.18;3.78;;;16.30;1.00;;;;;;4994604;28;20588;-85
2022/06/24 02:31:09;;;;;;;4.68;3.95;;;16.30;1.00;;;;;;4996162;28;20187;-84
2022/06/24 02:33:35;;;;;;;3.90;3.58;;;16.20;1.00;;;;;;4994519;28;20196;-85
2022/06/24 02:36:02;;;;;;;5.15;4.10;;;16.20;1.00;;;;;;4995149;28;20558;-84
2022/06/24 02:38:28;;;;;;;4.15;3.80;;;16.20;1.00;;;;;;5010959;28;20800;-85
2022/06/24 02:40:53;;;;;;;3.80;3.50;;;16.30;1.00;;;;;;4995658;28;20195;-84
2022/06/24 02:43:25;;;;;;;4.13;3.70;;;16.30;1.00;;;;;;4996593;28;20188;-84
2022/06/24 02:45:52;;;;;;;4.18;3.85;;;16.40;1.00;;;;;;4994573;28;20188;-84
2022/06/24 02:48:19;;;;;;;3.85;3.55;;;16.50;1.00;;;;;;4995056;28;20211;-85
2022/06/24 02:50:46;;;;;;;3.92;3.63;;;16.50;1.00;;;;;;4987839;28;20459;-86
2022/06/24 02:53:14;;;;;;;4.20;3.80;;;16.50;1.00;;;;;;4992724;28;20223;-85
2022/06/24 02:55:40;;;;;;;3.75;3.30;;;16.50;1.00;;;;;;5011389;28;20222;-85
2022/06/24 02:58:06;;;;;;;4.50;4.10;;;16.60;1.00;;;;;;4991457;28;20183;-85
2022/06/24 03:00:33;;;;;;;4.13;3.78;;;16.60;1.00;;;;;;4988688;28;20253;-85
2022/06/24 03:02:58;;;;;;;4.40;3.80;;;16.60;1.00;;;;;;4988076;28;20196;-84
2022/06/24 03:05:24;;;;;;;3.95;3.60;;;16.60;1.00;;;;;;4994629;28;20187;-84
2022/06/24 03:07:50;;;;;;;4.45;3.90;;;16.70;1.00;;;;;;4995320;28;20650;-85
2022/06/24 03:10:16;;;;;;;4.50;4.15;;;16.70;1.00;;;;;;4993308;28;20231;-85
2022/06/24 03:12:43;;;;;;;4.28;3.88;;;16.80;1.00;;;;;;4994511;28;20610;-82
2022/06/24 03:15:09;;;;;;;3.92;3.60;;;16.70;1.00;;;;;;4995420;28;20244;-85
2022/06/24 03:17:35;;;;;;;4.70;4.05;;;16.70;1.00;;;;;;4994388;28;20234;-85
2022/06/24 03:20:05;;;;;;;5.40;3.97;;;16.70;1.00;;;;;;4993127;28;20207;-85
2022/06/24 03:22:31;;;;;;;4.85;4.13;;;16.80;1.00;;;;;;4994747;28;20184;-85
2022/06/24 03:24:57;;;;;;;4.50;4.10;;;16.80;1.00;;;;;;4994072;28;20190;-85
2022/06/24 03:27:23;;;;;;;4.32;4.03;;;16.70;1.00;;;;;;4992198;28;20247;-85
2022/06/24 03:29:49;;;;;;;4.07;3.67;;;16.70;1.00;;;;;;4994975;28;20215;-85
2022/06/24 03:32:14;;;;;;;4.70;4.30;;;16.70;1.00;;;;;;4998075;28;20184;-84
2022/06/24 03:34:40;;;;;;;4.85;4.45;;;16.80;1.00;;;;;;4997537;28;20187;-85
2022/06/24 03:37:06;;;;;;;4.30;3.95;;;16.70;1.00;;;;;;4999645;28;20176;-85
2022/06/24 03:39:31;;;;;;;4.60;4.20;;;16.80;1.00;;;;;;4997320;28;20199;-85
2022/06/24 03:41:57;;;;;;;4.43;4.13;;;16.80;1.00;;;;;;4998310;28;20180;-86
2022/06/24 03:44:23;;;;;;;4.57;4.18;;;16.80;1.00;;;;;;4995823;28;20621;-84
2022/06/24 03:46:48;;;;;;;4.57;4.18;;;16.80;1.00;;;;;;4999928;28;21261;-85
2022/06/24 03:49:15;;;;;;;4.32;4.03;;;16.90;1.00;;;;;;4997425;28;20554;-86
2022/06/24 03:51:41;;;;;;;5.18;4.43;;;16.90;1.00;;;;;;4998000;28;20192;-86
2022/06/24 03:54:07;;;;;;;4.68;4.25;;;16.90;1.00;;;;;;4997422;28;20688;-84
2022/06/24 03:56:32;;;;;;;4.68;4.28;;;17.00;1.00;;;;;;4998276;28;21210;-84
2022/06/24 03:58:58;;;;;;;5.75;4.20;;;17.00;1.00;;;;;;4997282;28;20211;-85
2022/06/24 04:01:23;;;;;;;6.32;4.35;;;17.00;1.00;;;;;;4998387;28;20590;-85
2022/06/24 04:03:49;;;;;;;4.63;4.22;;;17.00;1.00;;;;;;4997163;28;20183;-87
2022/06/24 04:06:14;;;;;;;4.60;4.20;;;17.00;1.00;;;;;;4997144;28;20638;-86
2022/06/24 04:08:40;;;;;;;4.55;4.15;;;17.00;1.00;;;;;;4997510;28;20208;-85
2022/06/24 04:11:13;;;;;;;4.90;4.50;;;17.10;1.00;;;;;;4997625;28;20202;-85
2022/06/24 04:13:39;;;;;;;5.97;4.30;;;17.10;1.00;;;;;;4996971;28;20200;-85
2022/06/24 04:16:05;;;;;;;4.05;3.75;;;17.20;1.00;;;;;;4996067;28;20234;-84
2022/06/24 04:18:31;;;;;;;4.93;4.30;;;17.20;1.00;;;;;;4997313;28;20204;-86
2022/06/24 04:20:57;;;;;;;4.55;4.25;;;17.30;1.00;;;;;;4997550;28;20196;-86
2022/06/24 04:23:23;;;;;;;4.78;4.28;;;17.40;1.00;;;;;;4997582;28;20191;-86
2022/06/24 04:25:49;;;;;;;4.30;3.95;;;17.50;1.00;;;;;;4997172;28;20187;-86
2022/06/24 04:28:16;;;;;;;4.55;4.20;;;17.50;1.00;;;;;;4995599;28;20211;-86
2022/06/24 04:30:42;;;;;;;4.75;4.28;;;17.50;1.00;;;;;;4997797;28;20245;-86
2022/06/24 04:33:07;;;;;;;5.03;4.03;;;17.50;1.00;;;;;;4996520;28;20650;-85
2022/06/24 04:35:33;;;;;;;4.80;4.40;;;17.60;1.00;;;;;;4997271;28;20210;-84
2022/06/24 04:37:59;;;;;;;4.78;4.32;;;17.60;1.00;;;;;;4996004;28;20184;-85
2022/06/24 04:40:26;;;;;;;4.88;4.47;;;17.70;1.00;;;;;;4995442;28;20673;-86
2022/06/24 04:42:51;;;;;;;5.35;4.25;;;17.70;1.00;;;;;;4996428;28;20183;-85
2022/06/24 04:45:17;;;;;;;5.70;4.60;;;17.70;1.00;;;;;;4997100;28;20179;-86
2022/06/24 04:47:43;;;;;;;5.78;4.30;;;17.80;1.00;;;;;;4997564;28;20270;-87
2022/06/24 04:50:09;;;;;;;4.85;4.45;;;17.90;1.00;;;;;;4991884;28;20212;-86
2022/06/24 04:52:37;;;;;;;4.95;3.85;;;18.10;1.00;;;;;;4990857;28;20231;-85
2022/06/24 04:55:04;;;;;;;4.50;4.10;;;18.30;1.00;;;;;;4993062;28;20223;-85
2022/06/24 04:57:30;;;;;;;4.35;4.00;;;;;;;;;;4983748;28;20180;-86
2022/06/24 04:59:56;;;;;;;5.00;3.47;;;;;;;;;;4992886;28;20235;-86
2022/06/24 05:02:22;;;;;;;3.60;3.30;;;;;;;;;;4987689;28;20184;-86
2022/06/24 05:04:47;;;;;;;3.25;2.95;;;18.50;1.00;;;;;;4993651;28;20238;-86
2022/06/24 05:07:13;;;;;;;5.93;3.00;;;23.30;99.90;;;;;;4986533;28;20188;-86
2022/06/24 05:09:39;;;;;;;2.88;2.67;;;24.60;1.00;;;;;;4993694;28;20201;-86
2022/06/24 05:12:05;;;;;;;4.07;3.05;;;25.60;99.90;;;;;;4992881;28;20608;-86
2022/06/24 05:14:31;;;;;;;5.50;2.90;;;26.10;99.90;;;;;;4991021;28;20443;-86
2022/06/24 05:16:59;;;;;;;3.42;3.13;;;26.50;99.90;;;;;;4989870;28;20634;-86
2022/06/24 05:19:25;;;;;;;4.22;2.80;;;27.20;99.90;;;;;;4992596;28;20315;-86
2022/06/24 05:21:51;;;;;;;3.33;3.05;;;27.90;99.90;;;;;;4988938;28;20283;-86
2022/06/24 05:24:17;;;;;;;3.05;2.85;;;28.40;99.40;;;;;;4986034;28;20278;-86
2022/06/24 05:26:44;;;;;;;4.32;3.15;;;29.00;78.70;;;;;;4989019;28;20210;-88
2022/06/24 05:29:10;;;;;;;3.47;2.67;;;29.50;53.90;;;;;;4992960;28;20215;-86
2022/06/24 05:31:36;;;;;;;3.63;3.20;;;29.80;30.70;;;;;;4986148;28;20184;-86
2022/06/24 05:34:02;;;;;;;3.47;3.20;;;30.20;18.00;;;;;;4986027;28;20187;-86
2022/06/24 05:36:27;;;;;;;3.58;3.28;;;30.70;1.00;;;;;;4994509;28;20231;-87
2022/06/24 05:38:53;;;;;;;3.40;3.20;;;30.50;1.00;;;;;;4987537;28;20203;-87
2022/06/24 05:41:19;;;;;;;3.67;2.97;;;30.40;1.00;;;;;;4988415;28;20300;-86
2022/06/24 05:43:45;;;;;;;3.28;3.00;;;;;;;;;;4990171;28;20183;-87
2022/06/24 05:46:12;;;;;;;5.65;3.67;;;;;;;;;;4989425;28;20188;-86
2022/06/24 05:48:38;;;;;;;3.50;3.10;;;;;;;;;;4991620;28;20295;-87
2022/06/24 05:51:11;;;;;;;3.10;2.90;;;;;;;;;;4994393;28;20669;-87
2022/06/24 05:56:22;;;;;;;4.78;3.17;;;;;;;;;;4993227;28;20285;-87
2022/06/24 05:58:48;;;;;;;5.53;3.05;;;;;;;;;;4995424;28;20222;-86
2022/06/24 06:01:14;;;;;;;3.03;2.83;;;;;;;;;;4990445;28;20180;-86
2022/06/24 06:03:41;;;;;;;7.97;3.50;;;;;;;;;;4992564;28;20183;-85
2022/06/24 06:06:07;;;;;;;3.70;3.40;;;;;;;;;;4991255;28;20188;-87
2022/06/24 06:08:34;;;;;;;4.93;3.30;;;;;;;;;;4994551;28;20338;-86
2022/06/24 06:10:59;;;;;;;3.60;3.17;;;30.20;1.00;;;;;;4994237;28;20191;-87
2022/06/24 06:13:25;;;;;;;3.45;3.25;;;31.10;1.00;;;;;;4995679;28;20595;-88
2022/06/24 06:15:51;;;;;;;3.55;3.25;;;31.20;1.00;;;;;;4996064;28;20207;-86
2022/06/24 06:18:16;;;;;;;4.18;3.03;;;31.70;1.00;;;;;;4994460;28;20180;-86
2022/06/24 06:20:42;;;;;;;3.75;3.35;;;31.90;1.00;;;;;;4995634;28;20187;-85
2022/06/24 06:23:08;;;;;;;3.40;3.10;;;31.90;1.00;;;;;;4996618;28;20184;-86
2022/06/24 06:25:33;;;;;;;3.40;3.20;;;31.80;1.00;;;;;;4997618;28;20196;-86
2022/06/24 06:28:01;;;;;;;4.40;3.17;;;32.10;1.00;;;;;;4994747;28;20621;-86
2022/06/24 06:30:30;;;;;;;3.45;3.15;;;32.70;1.00;;;;;;4994707;28;20219;-86
2022/06/24 06:32:56;;;;;;;5.00;3.25;;;32.90;1.00;;;;;;4996277;28;20188;-86
2022/06/24 06:35:21;;;;;;;3.72;3.42;;;33.50;1.00;;;;;;4996239;28;20643;-86
2022/06/24 06:37:47;;;;;;;3.92;3.30;;;33.50;1.00;;;;;;4995485;28;20191;-87
2022/06/24 06:40:13;;;;;;;3.35;3.05;;;34.10;1.00;;;;;;4994436;28;20588;-87
2022/06/24 06:42:39;;;;;;;3.55;3.25;;;34.20;1.00;;;;;;5010618;28;20286;-87
2022/06/24 06:45:05;;;;;;;3.70;3.40;;;34.00;1.00;;;;;;4995279;28;20187;-85
2022/06/24 06:47:31;;;;;;;3.67;3.38;;;33.90;1.00;;;;;;4996307;28;20187;-86
2022/06/24 06:49:56;;;;;;;3.72;3.42;;;33.70;1.00;;;;;;4996727;28;20204;-85
2022/06/24 06:52:22;;;;;;;3.50;3.30;;;34.00;1.00;;;;;;4996571;28;20278;-85
2022/06/24 06:54:47;;;;;;;3.80;3.47;;;34.30;1.00;;;;;;4995215;28;20203;-85
2022/06/24 06:57:13;;;;;;;5.13;3.38;;;34.40;1.00;;;;;;4995757;28;20499;-85
2022/06/24 06:59:38;;;;;;;3.60;3.30;;;34.00;1.00;;;;;;4991124;28;20258;-85
2022/06/24 07:02:04;;;;;;;3.85;3.55;;;34.20;1.00;;;;;;4989363;28;20431;-85
2022/06/24 07:04:30;;;;;;;5.03;3.05;;;34.00;1.00;;;;;;4991553;28;20179;-85
2022/06/24 07:06:56;;;;;;;4.07;3.78;;;34.70;1.00;;;;;;4995858;28;20187;-88
2022/06/24 07:09:21;;;;;;;3.75;3.45;;;35.10;1.00;;;;;;4997266;28;20211;-85
2022/06/24 07:11:47;;;;;;;3.72;3.42;;;34.80;1.00;;;;;;4994266;28;20198;-84
2022/06/24 07:14:12;;;;;;;3.90;3.60;;;34.70;1.00;;;;;;4993445;28;20189;-85
2022/06/24 07:16:38;;;;;;;3.95;3.35;;;35.50;1.00;;;;;;4994886;28;20293;-84
2022/06/24 07:19:03;;;;;;;3.92;3.60;;;35.90;1.00;;;;;;4994137;28;20203;-85
2022/06/24 07:21:29;;;;;;;4.68;3.70;;;35.30;1.00;;;;;;4993293;28;20234;-88
2022/06/24 07:23:55;;;;;;;4.00;3.60;;;35.10;1.00;;;;;;4993765;28;20234;-85
2022/06/24 07:26:20;;;;;;;3.97;3.58;;;35.20;1.00;;;;;;4999847;28;20648;-86
2022/06/24 07:28:46;;;;;;;5.78;3.90;;;34.70;1.00;;;;;;4988279;28;20773;-86
2022/06/24 07:31:13;;;;;;;4.32;4.00;;;34.40;1.00;;;;;;4993178;28;20318;-86
2022/06/24 07:33:39;;;;;;;4.47;3.72;;;33.00;1.00;;;;;;4990084;28;20243;-87
2022/06/24 07:36:04;;;;;;;4.10;3.80;;;31.80;1.00;;;;;;4983800;28;20208;-86
2022/06/24 07:38:30;;;;;;;4.30;3.92;;;31.00;1.00;;;;;;4995984;28;20212;-86
2022/06/24 07:40:56;;;;;;;4.40;3.55;;;30.30;1.00;;;;;;4992253;28;20211;-86
2022/06/24 07:43:21;;;;;;;5.45;3.75;;;29.60;1.00;;;;;;4992569;28;20176;-86
2022/06/24 07:45:47;;;;;;;4.85;3.60;;;29.40;1.00;;;;;;4989402;28;20192;-86
2022/06/24 07:48:12;;;;;;;3.92;3.63;;;29.00;1.00;;;;;;4991460;28;20191;-86
2022/06/24 07:50:38;;;;;;;4.97;3.83;;;28.80;1.00;;;;;;4998469;28;20711;-86
2022/06/24 07:53:04;;;;;;;4.60;3.85;;;28.70;1.00;;;;;;4989267;28;20192;-86
2022/06/24 07:58:13;;;;;;;4.18;3.83;;;28.30;1.00;;;;;;4994816;28;20283;-86
2022/06/24 08:00:39;;;;;;;3.80;3.50;;;28.10;4.10;;;;;;4986659;28;20213;-86
2022/06/24 08:03:05;;;;;;;3.90;3.60;;;28.10;19.70;;;;;;4998436;28;20180;-86
2022/06/24 08:05:31;;;;;;;3.90;3.10;;;28.20;30.00;;;;;;4995637;28;20675;-86
2022/06/24 08:07:56;;;;;;;3.90;3.60;;;28.20;51.30;;;;;;4984700;28;20223;-86
2022/06/24 08:10:22;;;;;;;4.05;3.75;;;28.10;56.30;;;;;;4993691;28;20255;-86
2022/06/24 08:12:47;;;;;;;4.00;3.67;;;28.00;76.80;;;;;;4989981;28;20188;-86
2022/06/24 08:15:16;;;;;;;5.93;3.75;;;27.90;99.90;;;;;;4991980;28;20251;-85
2022/06/24 08:17:41;;;;;;;5.18;3.83;;;27.90;99.90;;;;;;4989376;28;20196;-85
2022/06/24 08:20:07;;;;;;;4.60;3.65;;;28.10;99.90;;;;;;4992371;28;20204;-85
2022/06/24 08:22:33;;;;;;;3.80;3.50;;;28.30;99.90;;;;;;4986315;28;20610;-87
2022/06/24 08:24:59;;;;;;;51.22;13.45;;;28.50;99.90;;;;;;4999381;28;20195;-85
2022/06/24 08:27:25;;;;;;;4.68;4.00;;;28.50;99.90;;;;;;4986996;28;20184;-85
2022/06/24 08:29:50;;;;;;;4.30;3.90;;;28.40;94.30;;;;;;4993592;28;20334;-85
2022/06/24 08:32:16;;;;;;;4.00;3.70;;;28.20;93.30;;;;;;4986469;28;20673;-86
2022/06/24 08:34:42;;;;;;;4.00;3.60;;;28.20;99.90;;;;;;4994302;28;20191;-86
2022/06/24 08:37:07;;;;;;;4.20;3.78;;;28.50;99.90;;;;;;4990853;28;20207;-86
2022/06/24 08:39:33;;;;;;;3.85;3.42;;;28.80;99.90;;;;;;4991654;28;20199;-86
2022/06/24 08:42:00;;;;;;;4.03;3.72;;;29.10;91.90;;;;;;4990022;28;20191;-85
2022/06/24 08:44:26;;;;;;;4.10;3.70;;;29.10;64.50;;;;;;4994872;28;20184;-85
2022/06/24 08:46:51;;;;;;;5.82;3.63;;;29.20;56.30;;;;;;4995718;28;20183;-84
2022/06/24 08:49:17;;;;;;;4.00;3.70;;;29.40;70.00;;;;;;4998606;28;20207;-84
2022/06/24 08:51:45;;;;;;;4.20;3.90;;;29.50;72.30;;;;;;4998005;28;20186;-86
2022/06/24 08:54:12;;;;;;;4.10;3.60;;;29.50;41.70;;;;;;4995696;28;20267;-86
2022/06/24 08:56:37;;;;;;;4.82;4.10;;;29.60;31.20;;;;;;4988472;28;20300;-86
2022/06/24 08:59:03;;;;;;;4.03;3.72;;;29.70;28.90;;;;;;4997339;28;20214;-85
2022/06/24 09:01:28;;;;;;;4.38;3.95;;;29.70;26.30;;;;;;4990634;28;20709;-87
2022/06/24 09:03:54;;;;;;;4.13;3.83;;;29.50;22.10;;;;;;4988533;28;20266;-85
2022/06/24 09:06:20;;;;;;;4.25;3.95;;;29.40;22.80;;;;;;4992140;28;20560;-85
2022/06/24 09:08:49;;;;;;;4.53;4.13;;;29.50;26.90;;;;;;4989114;28;20211;-85
2022/06/24 09:11:15;;;;;;;5.07;4.00;;;29.50;38.60;;;;;;4997684;28;20183;-85
2022/06/24 09:13:52;;;;;;;4.72;4.32;;;29.00;45.10;;;;;;5004646;28;20198;-85
2022/06/24 09:16:18;;;;;;;4.40;4.05;;;28.80;63.30;;;;;;4990465;28;20450;-85
2022/06/24 09:18:59;;;;;;;4.63;4.15;;;28.80;73.90;;;;;;4989365;28;20218;-86
2022/06/24 09:21:30;;;;;;;5.40;4.07;;;28.90;93.70;;;;;;4994539;28;20238;-85
2022/06/24 09:24:02;;;;;;;5.22;4.30;;;29.00;99.90;;;;;;4992952;28;20263;-85
2022/06/24 09:26:42;;;;;;;4.95;4.55;;;29.00;99.90;;;;;;4990954;28;20688;-85
2022/06/24 09:29:11;;;;;;;4.43;4.13;;;29.10;99.90;;;;;;4992524;28;20293;-85
2022/06/24 09:31:39;;;;;;;4.43;4.13;;;29.10;99.90;;;;;;4992050;28;20184;-85
2022/06/24 09:34:07;;;;;;;4.95;4.40;;;29.20;99.90;;;;;;4992257;28;20275;-86
2022/06/24 09:36:33;;;;;;;4.57;4.18;;;29.00;99.90;;;;;;4989415;28;20212;-85
2022/06/24 09:39:05;;;;;;;4.47;4.00;;;29.00;99.90;;;;;;4987765;28;20207;-85
2022/06/24 09:42:01;;;;;;;5.53;4.47;;;29.20;99.90;;;;;;4984868;28;20508;-85
2022/06/24 09:44:43;;;;;;;5.03;4.53;;;29.30;99.90;;;;;;4980755;28;20191;-84
2022/06/24 09:47:08;;;;;;;4.95;4.55;;;29.20;99.90;;;;;;4991208;28;20267;-85
2022/06/24 09:49:34;;;;;;;5.07;4.68;;;29.20;99.90;;;;;;4985841;28;20475;-85
2022/06/24 09:51:59;;;;;;;4.50;4.20;;;29.20;99.90;;;;;;4986094;28;20414;-85
2022/06/24 09:54:26;;;;;;;5.80;4.28;;;29.20;99.90;;;;;;4981416;28;20199;-85
2022/06/24 09:56:52;;;;;;;4.65;4.32;;;;;;;;;;4990097;28;20218;-85
2022/06/24 10:02:04;;;;;;;5.45;4.50;;;29.00;99.90;;;;;;4995994;28;20355;-84
2022/06/24 10:04:32;;;;;;;4.63;3.78;;;29.10;99.90;;;;;;4994826;28;20726;-84
2022/06/24 10:06:57;;;;;;;7.85;3.20;;;29.00;99.90;;;;;;4995025;28;20184;-84
2022/06/24 10:09:28;;;;;;;5.25;3.33;;;29.00;99.90;;;;;;4994553;28;20219;-84
2022/06/24 10:11:57;;;;;;;3.97;3.05;;;28.90;99.90;;;;;;4993672;28;20616;-84
2022/06/24 10:14:25;;;;;;;4.43;2.80;;;28.90;99.90;;;;;;4994131;28;21141;-84
2022/06/24 10:16:51;;;;;;;4.25;2.80;;;29.00;99.90;;;;;;4994855;28;20199;-85
2022/06/24 10:19:18;;;;;;;2.67;2.13;;;29.10;99.90;;;;;;4994258;28;20200;-83
2022/06/24 10:21:46;;;;;;;3.10;2.10;;;28.70;99.90;;;;;;4994926;28;20216;-84
2022/06/24 10:24:14;;;;;;;3.22;2.45;;;28.30;99.90;;;;;;5010803;28;20672;-83
2022/06/24 10:26:44;;;;;;;3.50;2.30;;;28.10;99.90;;;;;;4995360;28;20348;-84
2022/06/24 10:29:21;;;;;;;2.40;2.20;;;28.00;99.90;;;;;;4996098;28;20207;-85
2022/06/24 10:31:50;;;;;;;3.75;1.92;;;27.80;99.90;;;;;;4997262;28;20183;-85
2022/06/24 10:34:30;;;;;;;6.53;2.17;;;27.70;1.00;;;;;;4993253;28;20200;-85
2022/06/24 10:37:05;;;;;;;5.70;2.38;;;28.20;99.90;;;;;;4988082;28;20207;-85
2022/06/24 10:39:32;;;;;;;82.60;4.65;;;27.80;32.10;;;;;;4991635;28;20195;-86
2022/06/24 10:42:04;;;;;;;4.50;2.25;;;27.80;1.00;;;;;;4993107;28;20837;-81
2022/06/24 10:44:35;;;;;;;4.50;2.08;;;26.90;1.00;;;;;;4992879;28;20202;-79
2022/06/24 10:47:14;;;;;;;2.22;2.00;;;26.90;99.90;;;;;;4996509;28;20226;-78
2022/06/24 10:49:52;;;;;;;3.72;2.22;;;26.50;99.90;;;;;;4995549;28;20216;-77
2022/06/24 10:52:46;;;;;;;4.45;2.00;;;26.30;1.00;;;;;;4995916;28;20183;-79
2022/06/24 10:55:15;;;;;;;2.92;2.20;;;26.30;1.00;;;;;;4994442;28;20218;-82
2022/06/24 10:57:45;;;;;;;3.50;2.10;;;26.00;78.50;;;;;;4996062;28;20203;-81
2022/06/24 11:00:16;;;;;;;3.13;2.30;;;25.90;99.90;;;;;;4994562;28;20231;-80
2022/06/24 11:02:42;;;;;;;2.60;2.38;;;26.00;99.90;;;;;;4992725;28;20665;-78
2022/06/24 11:05:36;;;;;;;3.03;2.08;;;25.90;99.90;;;;;;4994267;28;20946;-81
2022/06/24 11:08:10;;;;;;;4.47;2.08;;;25.90;99.90;;;;;;4988525;28;20619;-82
2022/06/24 11:10:35;;;;;;;3.65;2.25;;;25.80;1.00;;;;;;4992344;28;20184;-82
2022/06/24 11:13:02;;;;;;;4.60;2.58;;;25.70;99.90;;;;;;4991773;28;20188;-80
2022/06/24 11:15:47;;;;;;;4.22;2.35;;;25.50;1.00;;;;;;4990591;28;20227;-82
2022/06/24 11:18:18;;;;;;;2.92;2.50;;;25.30;99.90;;;;;;4993950;28;20202;-78
2022/06/24 11:20:48;;;;;;;3.92;3.05;;;25.00;99.90;;;;;;4993182;28;20650;-79
2022/06/24 11:23:19;;;;;;;5.75;2.80;;;24.70;99.90;;;;;;4984233;28;20271;-80
2022/06/24 11:25:51;;;;;;;3.53;3.08;;;24.50;1.00;;;;;;4987792;28;20560;-81
2022/06/24 11:28:25;;;;;;;5.85;3.20;;;24.00;1.00;;;;;;4984879;28;20184;-81
2022/06/24 11:30:52;;;;;;;5.47;3.17;;;23.60;1.00;;;;;;4994226;28;20465;-81
2022/06/24 11:33:19;;;;;;;6.78;3.80;;;23.20;1.00;;;;;;4986019;28;20192;-81
2022/06/24 11:35:48;;;;;;;4.65;3.22;;;23.00;43.00;;;;;;4995514;28;20203;-84
2022/06/24 11:38:15;;;;;;;4.85;3.30;;;22.80;78.70;;;;;;4985795;28;20262;-80
2022/06/24 11:40:41;;;;;;;3.55;3.25;;;22.60;99.90;;;;;;4991772;28;20327;-82
2022/06/24 11:43:12;;;;;;;5.15;3.40;;;22.30;99.90;;;;;;4986064;28;20731;-81
2022/06/24 11:45:43;;;;;;;4.55;3.50;;;21.90;99.90;;;;;;4990746;28;20274;-83
2022/06/24 11:48:11;;;;;;;6.28;3.28;;;21.90;99.90;;;;;;4988023;28;20191;-83
2022/06/24 11:50:38;;;;;;;5.38;2.88;;;22.00;99.90;;;;;;4992388;28;20270;-82
2022/06/24 11:53:06;;;;;;;4.50;3.03;;;22.00;99.90;;;;;;4996820;28;20665;-82
2022/06/24 11:55:40;;;;;;;5.57;2.78;;;22.10;99.90;;;;;;4991318;28;20246;-84
2022/06/24 11:58:07;;;;;;;3.33;2.33;;;22.20;99.90;;;;;;4992157;28;20223;-82
2022/06/24 12:00:36;;;;;;;3.15;2.75;;;22.30;99.90;;;;;;4995396;28;20187;-81
2022/06/24 12:03:07;;;;;;;4.80;2.90;;;22.50;99.90;;;;;;4993825;28;20188;-83
2022/06/24 12:05:33;;;;;;;3.53;2.80;;;22.70;99.90;;;;;;5009676;28;20669;-81
2022/06/24 12:08:00;;;;;;;3.35;2.20;;;22.80;97.10;;;;;;4989096;28;20234;-81
2022/06/24 12:10:26;;;;;;;3.53;2.03;;;23.10;17.00;;;;;;4990677;28;20254;-82
2022/06/24 12:13:00;;;;;;;2.55;1.92;;;23.20;1.00;;;;;;4996332;28;20255;-79
2022/06/24 12:15:36;;;;;;;2.03;1.38;;;23.20;1.00;;;;;;4989292;28;20235;-80
2022/06/24 12:18:11;;;;;;;2.80;1.60;;;23.40;1.00;;;;;;4985979;28;20661;-80
2022/06/24 12:20:37;;;;;;;2.85;1.67;;;23.40;1.00;;;;;;4994731;28;20282;-80
2022/06/24 12:23:19;;;;;;;2.75;1.60;;;23.20;1.00;;;;;;4994755;28;20889;-82
2022/06/24 12:25:46;;;;;;;2.88;1.80;;;23.40;1.00;;;;;;4996570;28;21067;-80
2022/06/24 12:28:17;;;;;;;2.88;2.05;;;23.40;1.00;;;;;;4996081;28;20187;-80
2022/06/24 12:31:01;;;;;;;2.72;2.35;;;23.40;1.00;;;;;;4992354;28;20180;-80
2022/06/24 12:33:32;;;;;;;3.80;2.47;;;23.40;1.00;;;;;;4995612;28;20258;-80
2022/06/24 12:36:03;;;;;;;5.88;2.72;;;23.40;1.00;;;;;;4997441;28;20203;-80
2022/06/24 12:38:29;;;;;;;5.00;2.97;;;23.20;1.00;;;;;;4995224;28;20659;-80
2022/06/24 12:41:16;;;;;;;3.92;2.70;;;23.10;1.00;;;;;;4996495;28;20175;-80
2022/06/24 12:44:01;;;;;;;3.25;2.30;;;22.90;1.00;;;;;;4997316;28;20215;-81
2022/06/24 12:46:36;;;;;;;4.65;2.47;;;22.90;1.00;;;;;;4992942;28;20184;-82
2022/06/24 12:51:57;;;;;;;2.65;2.30;;;23.40;1.00;;;;;;4988009;28;20199;-83
2022/06/24 12:54:22;;;;;;;3.53;2.10;;;23.70;1.00;;;;;;4991192;28;20195;-81
2022/06/24 12:56:48;;;;;;;3.17;2.20;;;23.90;1.00;;;;;;4995323;28;20257;-81
2022/06/24 12:59:14;;;;;;;3.78;2.80;;;24.00;1.00;;;;;;4994469;28;20614;-85
2022/06/24 13:01:42;;;;;;;4.55;2.13;;;24.10;1.00;;;;;;4995156;28;20188;-83
2022/06/24 13:04:08;;;;;;;3.70;2.65;;;24.50;1.00;;;;;;4986824;28;20459;-82
2022/06/24 13:06:33;;;;;;;3.47;2.30;;;24.60;1.00;;;;;;4991445;28;20560;-82
2022/06/24 13:08:59;;;;;;;3.83;2.35;;;24.60;1.00;;;;;;4997857;28;20208;-83
2022/06/24 13:11:25;;;;;;;2.30;1.88;;;24.50;1.00;;;;;;4987574;28;20207;-82
2022/06/24 13:13:50;;;;;;;3.30;2.00;;;24.70;1.00;;;;;;4988924;28;20649;-82